Time;durP1;ratioP1;P1;durP2;ratioP2;P2;SDS_P1;SDS_P2;PMS_P1;PMS_P2;Temp;Humidity;BMP_temperature;BMP_pressure;BME280_temperature;BME280_humidity;BME280_pressure;Samples;Min_cycle;Max_cycle;Signal;HPM_P1;HPM_P2
2022/10/02 00:09:36;;;;;;;29.60;21.40;;;;;;;12.57;100.00;99402.70;658983;1277;140901;-89
2022/10/02 00:25:06;;;;;;;32.30;21.00;;;;;;;12.61;100.00;99400.88;659833;1274;142883;-89
2022/10/02 00:40:34;;;;;;;28.00;20.10;;;;;;;12.58;100.00;99403.41;659119;1274;140705;-89
2022/10/02 00:55:44;;;;;;;35.50;20.30;;;;;;;12.64;100.00;99412.08;659356;1275;139737;-88
2022/10/02 01:10:47;;;;;;;31.30;19.80;;;;;;;12.65;100.00;99418.66;658403;1277;139687;-89
2022/10/02 01:25:51;;;;;;;32.10;20.70;;;;;;;12.69;100.00;99428.61;657983;1275;139156;-88
2022/10/02 01:40:55;;;;;;;26.90;18.80;;;;;;;12.69;100.00;99436.30;658851;1277;139486;-90
2022/10/02 01:56:21;;;;;;;26.60;18.40;;;;;;;12.67;100.00;99450.32;658977;1277;140879;-88
2022/10/02 02:11:25;;;;;;;26.00;18.50;;;;;;;12.66;100.00;99464.91;659236;1276;139119;-89
2022/10/02 02:26:29;;;;;;;27.90;18.80;;;;;;;12.66;100.00;99474.69;658546;1275;140865;-88
2022/10/02 02:42:04;;;;;;;21.30;17.00;;;;;;;12.73;100.00;99474.22;658843;1277;139244;-89
2022/10/02 02:57:11;;;;;;;24.20;17.90;;;;;;;12.71;100.00;99483.44;658007;1277;139287;-88
2022/10/02 03:12:37;;;;;;;25.40;17.70;;;;;;;12.70;100.00;99496.02;659122;1277;139600;-87
2022/10/02 03:27:45;;;;;;;22.40;16.10;;;;;;;12.74;100.00;99500.14;658857;1276;140050;-87
2022/10/02 03:42:50;;;;;;;19.90;14.60;;;;;;;12.76;100.00;99505.48;658577;1275;139561;-87
2022/10/02 03:57:54;;;;;;;16.40;12.70;;;;;;;12.73;100.00;99514.02;658813;1274;139151;-89
2022/10/02 04:13:24;;;;;;;13.80;12.30;;;;;;;12.73;100.00;99518.14;660272;1275;139911;-87
2022/10/02 04:28:36;;;;;;;;;;;;;;;12.74;100.00;99539.09;659556;1275;140357;-90
2022/10/02 04:44:10;;;;;;;13.30;10.40;;;;;;;12.73;100.00;99544.79;658836;1277;125756;-88
2022/10/02 04:59:50;;;;;;;14.20;9.90;;;;;;;12.74;100.00;99557.17;658999;1277;139963;-89
2022/10/02 05:15:08;;;;;;;11.50;9.50;;;;;;;12.79;100.00;99564.27;659868;1276;139704;-86
2022/10/02 05:30:18;;;;;;;13.30;9.00;;;;;;;12.92;100.00;99578.34;659746;1276;140378;-86
2022/10/02 05:45:39;;;;;;;10.60;7.30;;;;;;;12.99;100.00;99590.52;660008;1275;139065;-87
2022/10/02 06:00:51;;;;;;;9.70;7.00;;;;;;;13.08;100.00;99596.39;662206;1277;139499;-89
2022/10/02 06:16:11;;;;;;;14.00;8.00;;;;;;;13.07;100.00;99609.40;659633;1276;140244;-87
2022/10/02 06:31:37;;;;;;;17.00;9.10;;;;;;;13.24;100.00;99621.25;658692;1277;139959;-89
2022/10/02 06:47:15;;;;;;;18.10;9.50;;;;;;;13.56;100.00;99634.08;659694;1275;140506;-89
2022/10/02 07:02:38;;;;;;;17.90;9.30;;;;;;;13.69;100.00;99638.05;659055;1274;140420;-87
2022/10/02 07:18:18;;;;;;;15.50;8.10;;;;;;;13.91;100.00;99642.26;659166;1276;139634;-87
2022/10/02 07:34:05;;;;;;;18.00;7.50;;;;;;;14.58;100.00;99643.60;659572;1274;139280;-88
2022/10/02 07:49:26;;;;;;;12.50;6.40;;;;;;;14.62;100.00;99645.95;659830;1275;139482;-87
2022/10/02 08:04:32;;;;;;;14.60;6.70;;;;;;;14.60;100.00;99652.42;659135;1274;139785;-85
2022/10/02 08:19:46;;;;;;;12.60;6.10;;;;;;;14.35;100.00;99666.95;660513;1277;139223;-86
2022/10/02 08:34:49;;;;;;;13.80;5.20;;;;;;;14.67;100.00;99667.74;662752;1275;139508;-87
2022/10/02 08:50:28;;;;;;;13.60;4.40;;;;;;;15.57;99.81;99668.38;660086;1274;138927;-87
2022/10/02 09:05:51;;;;;;;24.70;7.00;;;;;;;15.58;98.06;99667.20;660254;1277;139567;-86
2022/10/02 09:21:23;;;;;;;60.10;30.40;;;;;;;16.00;95.52;99665.31;659649;1277;138829;-87
2022/10/02 09:36:39;;;;;;;21.30;12.00;;;;;;;15.88;93.40;99671.15;659874;1275;139862;-85
2022/10/02 09:52:19;;;;;;;14.60;5.30;;;;;;;15.67;94.58;99676.20;659391;1275;139713;-84
2022/10/02 10:08:00;;;;;;;88.30;40.70;;;;;;;15.49;95.33;99677.09;658679;1277;139254;-86
2022/10/02 10:23:50;;;;;;;26.30;15.10;;;;;;;15.44;96.67;99675.67;659288;1275;139031;-85
2022/10/02 10:39:31;;;;;;;11.20;4.30;;;;;;;15.55;97.01;99681.77;659878;1277;138958;-85
2022/10/02 10:55:00;;;;;;;8.20;3.40;;;;;;;15.90;93.81;99673.45;658054;1275;963909;-86
2022/10/02 11:10:43;;;;;;;10.20;3.90;;;;;;;16.17;89.39;99682.24;659355;1276;138427;-85
2022/10/02 11:26:17;;;;;;;15.70;6.60;;;;;;;16.02;89.30;99679.22;662666;1276;139106;-84
2022/10/02 11:41:42;;;;;;;19.20;10.70;;;;;;;16.07;89.34;99677.23;661284;1274;139113;-85
2022/10/02 11:57:07;;;;;;;21.50;8.70;;;;;;;16.15;89.77;99671.25;660971;1274;139166;-86
2022/10/02 12:15:15;;;;;;;11.80;5.90;;;;;;;15.53;95.85;99676.17;640446;1312;882682;-86
2022/10/02 12:30:26;;;;;;;30.70;15.30;;;;;;;15.41;99.68;99670.42;658878;1280;138520;-86
2022/10/02 12:46:04;;;;;;;48.80;17.00;;;;;;;17.08;88.80;99656.05;659177;1281;138865;-86
2022/10/02 13:02:03;;;;;;;8.80;4.60;;;;;;;17.47;82.02;99649.60;659008;1281;140045;-85
2022/10/02 13:17:32;;;;;;;14.10;5.60;;;;;;;18.00;77.81;99647.05;663726;1280;140299;-84
2022/10/02 13:32:44;;;;;;;13.30;4.70;;;;;;;19.60;73.83;99628.16;661388;1281;140064;-85
2022/10/02 13:47:55;;;;;;;8.80;4.30;;;;;;;23.42;59.20;99619.54;657752;1281;138356;-84
2022/10/02 14:03:14;;;;;;;7.40;2.80;;;;;;;26.50;53.22;99610.25;657400;1281;138399;-83
2022/10/02 14:18:26;;;;;;;9.80;2.90;;;;;;;21.65;57.27;99608.60;659279;1281;139728;-85
2022/10/02 14:33:48;;;;;;;8.40;3.00;;;;;;;17.51;67.36;99615.45;658868;1281;137621;-86
2022/10/02 14:49:19;;;;;;;10.10;5.60;;;;;;;21.80;68.55;99615.29;660420;1281;138648;-87
2022/10/02 15:04:59;;;;;;;23.90;9.60;;;;;;;26.96;62.61;99619.51;658278;1280;138745;-86
2022/10/02 15:20:24;;;;;;;15.90;6.60;;;;;;;24.73;59.83;99615.52;660997;1282;138937;-87
2022/10/02 15:35:34;;;;;;;23.40;17.30;;;;;;;21.59;64.58;99605.05;658542;1280;139195;-89
2022/10/02 15:50:54;;;;;;;12.20;8.40;;;;;;;19.31;68.60;99591.44;657086;1280;139011;-86
2022/10/02 16:06:07;;;;;;;20.40;12.70;;;;;;;16.59;73.41;99598.09;657300;1280;138359;-88
2022/10/02 16:21:25;;;;;;;30.60;16.90;;;;;;;15.12;81.29;99625.41;657731;1279;139527;-85
2022/10/02 16:36:49;;;;;;;57.30;25.50;;;;;;;14.27;86.78;99643.91;657293;1280;138783;-87
2022/10/02 16:52:07;;;;;;;161.10;67.60;;;;;;;14.03;86.79;99635.48;657882;1280;138759;-86
2022/10/02 17:07:13;;;;;;;73.40;46.00;;;;;;;13.87;88.32;99642.19;659804;1278;139112;-87
2022/10/02 17:22:48;;;;;;;21.70;11.40;;;;;;;13.63;89.55;99653.16;659546;1280;142168;-86
2022/10/02 17:50:53;;;;;;;36.10;18.10;;;;;;;13.10;94.05;99653.48;646510;1312;1235272;-87
2022/10/02 18:06:09;;;;;;;15.90;8.20;;;;;;;12.82;96.36;99645.80;656678;1283;139313;-86
2022/10/02 18:21:24;;;;;;;9.90;5.30;;;;;;;12.46;99.71;99649.77;657258;1283;139537;-87
2022/10/02 18:36:42;;;;;;;14.90;6.80;;;;;;;12.31;100.00;99654.99;660329;1279;138873;-87
2022/10/02 18:52:09;;;;;;;23.00;12.40;;;;;;;12.11;100.00;99661.34;661405;1278;138880;-86
2022/10/02 19:07:20;;;;;;;19.10;8.80;;;;;;;11.89;100.00;99660.52;664382;1278;139048;-87
2022/10/02 19:22:37;;;;;;;12.10;6.20;;;;;;;11.71;100.00;99665.55;658029;1279;138858;-87
2022/10/02 19:37:42;;;;;;;8.90;4.70;;;;;;;11.50;100.00;99657.56;657726;1278;138663;-88
2022/10/02 19:52:57;;;;;;;14.80;9.00;;;;;;;11.33;100.00;99652.77;656924;1279;138302;-87
2022/10/02 20:08:10;;;;;;;9.20;4.80;;;;;;;11.27;100.00;99656.38;661976;1279;142586;-87
2022/10/02 20:23:21;;;;;;;10.40;4.50;;;;;;;11.34;100.00;99651.04;658425;1279;138591;-86
2022/10/02 20:38:34;;;;;;;11.40;5.00;;;;;;;11.24;100.00;99651.58;657944;1279;139352;-86
2022/10/02 20:54:02;;;;;;;8.80;4.70;;;;;;;11.15;100.00;99643.71;657293;1279;139871;-86
2022/10/02 21:09:42;;;;;;;9.20;4.80;;;;;;;10.99;100.00;99635.70;657849;1279;139120;-85
2022/10/02 21:25:32;;;;;;;13.40;6.30;;;;;;;10.85;100.00;99629.20;658233;1280;138459;-87
2022/10/02 21:41:10;;;;;;;15.40;6.50;;;;;;;10.82;100.00;99622.66;657116;1278;139649;-86
2022/10/02 21:56:25;;;;;;;17.90;7.20;;;;;;;10.85;100.00;99609.69;658172;1279;139103;-86
2022/10/02 22:12:05;;;;;;;18.70;6.70;;;;;;;10.94;100.00;99603.46;657323;1279;139601;-86
2022/10/02 22:27:22;;;;;;;15.90;6.00;;;;;;;10.99;100.00;99594.42;657753;1279;139060;-88
2022/10/02 22:42:55;;;;;;;17.80;6.30;;;;;;;11.03;100.00;99596.63;657803;1279;140121;-87
2022/10/02 22:58:11;;;;;;;16.60;7.90;;;;;;;11.12;100.00;99594.02;657317;1279;139373;-85
2022/10/02 23:13:25;;;;;;;8.60;4.10;;;;;;;11.30;100.00;99594.60;657029;1277;138786;-86
2022/10/02 23:28:36;;;;;;;11.40;4.10;;;;;;;11.44;100.00;99590.72;657207;1277;139850;-85
2022/10/02 23:43:51;;;;;;;6.50;2.50;;;;;;;11.48;100.00;99581.94;659088;1277;139321;-85
2022/10/02 23:59:07;;;;;;;11.40;4.40;;;;;;;11.50;100.00;99585.01;658692;1277;138833;-86
